Flight Briefing for CPX233

Departure Arrival
Sacramento International Airport (KSMF)
Click to view FAA NOTAMS
Phoenix Sky Harbor International Airport (KPHX)
Click to view FAA NOTAMS
Departure Time Arrival Time
N/A N/A
Aircraft Distance
B767-300BDSF 562nm
Departure METAR Arrival METAR
KSMF 252353Z 23008KT 5SM -RA BR FEW050 OVC065 14/12 A3005 RMK AO2 SLP175 P0004 60004 T01390122 10167 20122 58003 KPHX 252351Z 19008KT 10SM FEW250 30/M05 A2997 RMK AO2 SLP134 T03001050 10306 20233 56019
Suggested Route
SCTWN2 SCTWN DOSCO OAL LIDAT BTY J92 BLD PRFUM WOTRO BRUSR1


View recent IFR Routes data
Notes



Charts and Procedures

Charts for KSMF
No chart available
Charts for KPHX
No chart available

Windy.com Weather Map